This is the latest recevied weather packets stored in our database for station/object W0DP. If no packets are shown the sender has not sent any weather packets the latest 10 day(s).
| Time | Temp. | Humidity | Pressure | Rain* | Wind** | Luminosity | Snow |
|---|---|---|---|---|---|---|---|
| 1777772715 | 13.89° C | 45% | 1016.2 hPa | 0 mm | - | - | - |
| 1777770917 | 15° C | 42% | 1016.1 hPa | 0 mm | - | - | - |
| 1777770317 | 15° C | 41% | 1016.1 hPa | 0 mm | - | - | - |
| 1777768517 | 16.11° C | 39% | 1016.4 hPa | 0 mm | - | - | - |
| 1777767317 | 17.22° C | 38% | 1016.4 hPa | 0 mm | - | - | - |
| 1777764917 | 18.89° C | 33% | 1016.9 hPa | 0 mm | - | - | - |
| 1777764317 | 19.44° C | 33% | 1017 hPa | 0 mm | - | - | - |
| 1777763117 | 19.44° C | 34% | 1017.2 hPa | 0 mm | - | - | - |
| 1777762517 | 19.44° C | 31% | 1017.4 hPa | 0 mm | - | - | - |
| 1777757717 | 20° C | 31% | 1018.3 hPa | 0 mm | - | - | - |
| 1777756557 | 19.44° C | 34% | 1018.4 hPa | 0 mm | - | - | - |
| 1777755336 | 20° C | 33% | 1018.8 hPa | 0 mm | - | - | - |
| 1777752316 | 18.33° C | 35% | 1019.7 hPa | 0 mm | - | - | - |
| 1777749916 | 17.78° C | 37% | 1020.4 hPa | 0 mm | - | - | - |
| 1777747516 | 16.67° C | 37% | 1020.9 hPa | 0 mm | - | - | - |
| 1777742716 | 15° C | 38% | 1021.8 hPa | 0 mm | - | - | - |
| 1777736736 | 13.89° C | 43% | 1022.6 hPa | 0 mm | - | - | - |
| 1777735556 | 13.89° C | 38% | 1022.7 hPa | 0 mm | - | - | - |
| 1777734916 | 13.89° C | 44% | 1022.8 hPa | 0 mm | - | - | - |
| 1777733716 | 12.78° C | 43% | 1022.8 hPa | 0 mm | - | - | - |
| 1777733115 | 12.78° C | 51% | 1022.9 hPa | 0 mm | - | - | - |
| 1777728337 | 7.22° C | 71% | 1022.9 hPa | 0 mm | - | - | - |
| 1777726537 | 5° C | 77% | 1023 hPa | 0 mm | - | - | - |
| 1777724717 | 3.33° C | 83% | 1023 hPa | 0 mm | - | - | - |
| 1777722917 | 1.67° C | 88% | 1022.5 hPa | 0 mm | - | - | - |
* Rain latest hour (hover to see other rain measurements)
** Current wind speed in m/s (hover to see current wind gust speed)